Time;durP1;ratioP1;P1;durP2;ratioP2;P2;SDS_P1;SDS_P2;PMS_P1;PMS_P2;Temp;Humidity;BMP_temperature;BMP_pressure;BME280_temperature;BME280_humidity;BME280_pressure;Samples;Min_cycle;Max_cycle;Signal;HPM_P1;HPM_P2
2022/04/19 00:00:28;;;;;;;;;;;;;;;7.53;45.32;92400.53;2055386;70;20130;-70
2022/04/19 00:02:53;;;;;;;;;;;;;;;7.39;46.65;92397.53;2055516;70;20516;-70
2022/04/19 00:05:19;;;;;;;;;;;;;;;7.49;45.43;92397.47;2055600;70;20058;-70
2022/04/19 00:07:44;;;;;;;;;;;;;;;7.43;45.25;92391.47;2055455;70;20091;-71
2022/04/19 00:10:10;;;;;;;;;;;;;;;7.51;44.35;92395.53;2055440;69;20058;-69
2022/04/19 00:12:36;;;;;;;;;;;;;;;7.33;45.73;92397.09;2055451;70;20054;-69
2022/04/19 00:15:02;;;;;;;;;;;;;;;7.30;45.52;92399.03;2055336;70;20192;-69
2022/04/19 00:17:28;;;;;;;;;;;;;;;7.37;45.10;92400.91;2055314;70;20050;-70
2022/04/19 00:19:53;;;;;;;;;;;;;;;7.27;45.47;92400.22;2055662;70;20070;-69
2022/04/19 00:22:19;;;;;;;;;;;;;;;7.23;46.20;92393.63;2055289;69;20432;-70
2022/04/19 00:24:44;;;;;;;;;;;;;;;7.29;45.31;92394.06;2055410;70;20058;-69
2022/04/19 00:27:10;;;;;;;;;;;;;;;7.27;45.61;92388.28;2055525;69;20515;-69
2022/04/19 00:29:35;;;;;;;;;;;;;;;7.17;45.96;92384.81;2055410;69;20123;-70
2022/04/19 00:32:01;;;;;;;;;;;;;;;7.19;46.17;92388.47;2055481;70;20074;-71
2022/04/19 00:34:27;;;;;;;;;;;;;;;7.17;45.54;92379.22;2065678;69;20082;-69
2022/04/19 00:36:52;;;;;;;;;;;;;;;7.04;46.06;92378.38;2054965;69;20050;-68
2022/04/19 00:39:17;;;;;;;;;;;;;;;6.99;46.73;92382.22;2067344;69;20535;-69
2022/04/19 00:41:43;;;;;;;;;;;;;;;6.99;45.85;92379.44;2068006;69;20069;-69
2022/04/19 00:44:09;;;;;;;;;;;;;;;6.99;45.80;92378.72;2055100;69;20555;-70
2022/04/19 00:46:34;;;;;;;;;;;;;;;6.85;46.59;92368.00;2055289;70;20050;-69
2022/04/19 00:49:00;;;;;;;;;;;;;;;6.97;46.50;92372.97;2068074;69;20141;-69
2022/04/19 00:51:26;;;;;;;;;;;;;;;6.95;46.60;92372.81;2067848;69;20058;-68
2022/04/19 00:53:52;;;;;;;;;;;;;;;6.94;45.55;92365.78;2055103;70;20053;-68
2022/04/19 00:56:19;;;;;;;;;;;;;;;6.86;46.97;92375.06;2054790;69;20074;-68
2022/04/19 00:58:44;;;;;;;;;;;;;;;6.81;46.42;92358.59;2055152;70;20089;-68
2022/04/19 01:01:10;;;;;;;;;;;;;;;6.68;46.78;92370.28;2067940;69;20050;-69
2022/04/19 01:03:37;;;;;;;;;;;;;;;6.72;47.08;92367.75;2067898;69;20053;-68
2022/04/19 01:06:09;;;;;;;;;;;;;;;6.58;47.71;92359.84;2068194;69;20124;-68
2022/04/19 01:08:36;;;;;;;;;;;;;;;6.67;46.71;92361.16;2055441;69;20050;-69
2022/04/19 01:14:08;;;;;;;;;;;;;;;6.67;46.54;92347.16;2046053;69;20150;-68
2022/04/19 01:16:35;;;;;;;;;;;;;;;6.70;46.46;92348.06;2042315;70;20055;-70
2022/04/19 01:19:03;;;;;;;;;;;;;;;6.59;46.82;92346.59;2044880;70;20061;-69
2022/04/19 01:21:43;;;;;;;;;;;;;;;7.00;43.50;92346.59;2044930;70;20202;-69
2022/04/19 01:24:14;;;;;;;;;;;;;;;6.80;45.68;92340.34;2044639;70;20422;-70
2022/04/19 01:26:41;;;;;;;;;;;;;;;6.81;45.50;92339.00;2044907;70;20051;-69
2022/04/19 01:29:07;;;;;;;;;;;;;;;6.66;46.68;92336.59;2045497;70;20136;-69
2022/04/19 01:31:33;;;;;;;;;;;;;;;6.87;45.93;92336.63;2045106;70;20055;-69
2022/04/19 01:33:58;;;;;;;;;;;;;;;6.70;46.63;92334.06;2044797;70;20058;-69
2022/04/19 01:36:24;;;;;;;;;;;;;;;6.71;45.56;92327.88;2044911;70;20695;-69
2022/04/19 01:38:50;;;;;;;;;;;;;;;6.96;43.62;92329.50;2042046;70;20154;-68
2022/04/19 01:41:19;;;;;;;;;;;;;;;7.13;42.36;92337.69;2044813;70;20111;-67
2022/04/19 01:43:47;;;;;;;;;;;;;;;6.87;45.49;92334.59;2044672;70;20054;-67
2022/04/19 01:46:17;;;;;;;;;;;;;;;6.88;45.01;92327.66;2044689;70;20605;-68
2022/04/19 01:48:43;;;;;;;;;;;;;;;6.64;46.25;92323.16;2044834;70;20512;-69
2022/04/19 01:51:08;;;;;;;;;;;;;;;6.75;45.72;92321.81;2044780;70;20047;-68
2022/04/19 01:53:34;;;;;;;;;;;;;;;6.70;44.98;92314.47;2044789;70;20111;-69
2022/04/19 01:55:59;;;;;;;;;;;;;;;6.41;46.75;92322.97;2044783;70;20055;-70
2022/04/19 01:58:48;;;;;;;;;;;;;;;6.39;46.52;92314.44;2043665;70;20077;-68
2022/04/19 02:01:15;;;;;;;;;;;;;;;6.65;45.85;92316.28;2044742;70;20170;-68
2022/04/19 02:03:43;;;;;;;;;;;;;;;6.60;45.26;92317.31;2044677;70;20071;-68
2022/04/19 02:06:14;;;;;;;;;;;;;;;6.31;46.63;92315.34;2044971;70;20058;-68
2022/04/19 02:08:41;;;;;;;;;;;;;;;6.72;44.16;92306.94;2044569;70;20059;-68
2022/04/19 02:11:13;;;;;;;;;;;;;;;6.39;46.97;92306.78;2044846;70;20147;-70
2022/04/19 02:13:39;;;;;;;;;;;;;;;6.53;45.50;92301.44;2062369;69;20140;-69
2022/04/19 02:16:09;;;;;;;;;;;;;;;6.48;45.99;92299.69;2068277;69;20053;-69
2022/04/19 02:18:36;;;;;;;;;;;;;;;6.73;43.86;92302.81;2067761;69;20123;-70
2022/04/19 02:21:01;;;;;;;;;;;;;;;6.51;45.33;92293.66;2067710;69;20438;-69
2022/04/19 02:23:27;;;;;;;;;;;;;;;6.36;47.01;92296.78;2067573;69;20085;-69
2022/04/19 02:25:55;;;;;;;;;;;;;;;6.23;47.65;92294.47;2068356;69;20041;-69
2022/04/19 02:28:21;;;;;;;;;;;;;;;6.25;47.12;92297.41;2068281;69;20052;-68
2022/04/19 02:30:57;;;;;;;;;;;;;;;6.23;47.80;92294.47;2067716;69;20476;-69
2022/04/19 02:33:26;;;;;;;;;;;;;;;6.42;46.91;92285.31;2067721;69;20073;-68
2022/04/19 02:35:55;;;;;;;;;;;;;;;6.48;45.34;92274.53;2067759;69;20085;-69
2022/04/19 02:38:22;;;;;;;;;;;;;;;6.50;45.87;92283.03;2067557;69;20419;-69
2022/04/19 02:40:48;;;;;;;;;;;;;;;6.86;43.28;92282.00;2067697;69;20048;-70
2022/04/19 02:43:16;;;;;;;;;;;;;;;6.52;45.53;92275.53;2067666;69;20136;-69
2022/04/19 02:45:44;;;;;;;;;;;;;;;6.32;45.85;92272.09;2065169;69;20076;-70
2022/04/19 02:48:12;;;;;;;;;;;;;;;6.40;46.04;92271.16;2068163;69;20086;-69
2022/04/19 02:50:46;;;;;;;;;;;;;;;6.41;46.41;92275.44;2068241;69;20118;-71
2022/04/19 02:53:12;;;;;;;;;;;;;;;6.34;46.65;92271.50;2068094;69;20068;-70
2022/04/19 02:55:39;;;;;;;;;;;;;;;6.39;46.80;92264.84;2068169;69;20073;-69
2022/04/19 02:58:09;;;;;;;;;;;;;;;6.31;46.05;92265.00;2068171;69;20156;-70
2022/04/19 03:00:36;;;;;;;;;;;;;;;5.96;48.11;92275.88;2068165;69;20049;-70
2022/04/19 03:03:03;;;;;;;;;;;;;;;6.09;47.88;92283.03;2068192;69;20045;-70
2022/04/19 03:05:29;;;;;;;;;;;;;;;6.07;47.21;92286.41;2068164;69;20049;-70
2022/04/19 03:07:56;;;;;;;;;;;;;;;5.80;48.66;92278.22;2068046;69;20135;-70
2022/04/19 03:10:21;;;;;;;;;;;;;;;6.33;44.52;92270.75;2068174;69;20142;-70
2022/04/19 03:12:51;;;;;;;;;;;;;;;6.20;46.28;92271.25;2068129;69;20056;-69
2022/04/19 03:15:20;;;;;;;;;;;;;;;6.04;48.13;92270.09;2068158;69;20140;-69
2022/04/19 03:17:46;;;;;;;;;;;;;;;6.09;47.91;92271.84;2068153;69;20551;-69
2022/04/19 03:20:12;;;;;;;;;;;;;;;6.27;45.59;92264.72;2068911;69;20130;-69
2022/04/19 03:28:12;;;;;;;;;;;;;;;5.85;48.06;92252.03;2068174;69;20045;-69
2022/04/19 03:30:40;;;;;;;;;;;;;;;6.14;46.10;92239.31;2068220;69;20081;-69
2022/04/19 03:33:05;;;;;;;;;;;;;;;6.27;47.01;92236.03;2068132;69;20095;-69
2022/04/19 03:35:31;;;;;;;;;;;;;;;6.35;46.06;92242.19;2068079;69;20053;-69
2022/04/19 03:37:56;;;;;;;;;;;;;;;6.44;43.81;92237.91;2065299;69;20069;-70
2022/04/19 03:40:22;;;;;;;;;;;;;;;6.12;47.10;92234.34;2068093;69;20049;-69
2022/04/19 03:42:47;;;;;;;;;;;;;;;6.11;46.72;92241.25;2068129;69;20080;-68
2022/04/19 03:45:13;;;;;;;;;;;;;;;6.28;46.65;92243.13;2068019;69;20084;-71
2022/04/19 03:47:38;;;;;;;;;;;;;;;6.19;45.61;92243.91;2068682;69;20091;-69
2022/04/19 03:50:05;;;;;;;;;;;;;;;6.23;46.20;92239.31;2068104;69;20512;-69
2022/04/19 03:52:31;;;;;;;;;;;;;;;6.33;45.82;92239.28;2068650;69;20109;-69
2022/04/19 03:54:57;;;;;;;;;;;;;;;6.67;45.10;92237.34;2067978;69;20084;-69
2022/04/19 03:57:25;;;;;;;;;;;;;;;6.37;46.15;92245.16;2068557;69;20053;-68
2022/04/19 03:59:52;;;;;;;;;;;;;;;6.39;45.51;92236.88;2065345;69;20057;-69
2022/04/19 04:02:22;;;;;;;;;;;;;;;6.31;45.86;92230.72;2068072;69;20053;-69
2022/04/19 04:04:47;;;;;;;;;;;;;;;6.14;46.64;92236.53;2068091;69;20052;-69
2022/04/19 04:07:13;;;;;;;;;;;;;;;6.19;47.03;92227.84;2068080;69;20113;-69
2022/04/19 04:09:39;;;;;;;;;;;;;;;6.21;47.14;92233.56;2067891;69;20053;-72
2022/04/19 04:12:14;;;;;;;;;;;;;;;6.26;46.55;92243.69;2066502;69;20057;-71
2022/04/19 04:14:40;;;;;;;;;;;;;;;6.24;45.94;92237.97;2065382;69;20061;-68
2022/04/19 04:17:06;;;;;;;;;;;;;;;6.00;47.25;92236.28;2065306;69;20519;-70
2022/04/19 04:19:31;;;;;;;;;;;;;;;5.98;47.62;92234.09;2065372;69;20098;-68
2022/04/19 04:21:57;;;;;;;;;;;;;;;6.17;46.47;92229.75;2065309;69;20433;-69
2022/04/19 04:24:24;;;;;;;;;;;;;;;6.10;46.55;92237.75;2065201;69;20054;-70
2022/04/19 04:26:49;;;;;;;;;;;;;;;5.96;47.92;92233.22;2065326;69;20053;-70
2022/04/19 04:29:18;;;;;;;;;;;;;;;6.23;46.11;92232.97;2065306;69;20046;-68
2022/04/19 04:31:46;;;;;;;;;;;;;;;6.21;45.35;92230.03;2065179;69;20142;-69
2022/04/19 04:34:15;;;;;;;;;;;;;;;6.36;44.23;92233.22;2065214;69;20524;-69
2022/04/19 04:36:41;;;;;;;;;;;;;;;6.27;44.33;92236.03;2065094;69;20078;-68
2022/04/19 04:39:09;;;;;;;;;;;;;;;6.20;45.34;92236.97;2065226;69;20055;-71
2022/04/19 04:41:55;;;;;;;;;;;;;;;6.34;44.42;92237.94;2052352;69;20074;-68
2022/04/19 04:44:20;;;;;;;;;;;;;;;6.27;46.52;92236.03;2065200;69;20054;-71
2022/04/19 04:49:41;;;;;;;;;;;;;;;6.24;45.13;92242.84;2061323;69;20054;-69
2022/04/19 04:52:13;;;;;;;;;;;;;;;6.05;47.98;92236.00;2065285;69;20165;-70
2022/04/19 04:54:40;;;;;;;;;;;;;;;6.06;47.50;92240.25;2065255;69;20060;-70
2022/04/19 04:57:07;;;;;;;;;;;;;;;5.90;48.13;92241.13;2065223;69;20137;-69
2022/04/19 04:59:33;;;;;;;;;;;;;;;5.97;47.93;92237.47;2065298;69;20082;-69
2022/04/19 05:02:00;;;;;;;;;;;;;;;5.48;50.77;92245.19;2065218;69;20078;-69
2022/04/19 05:04:26;;;;;;;;;;;;;;;5.37;51.41;92254.16;2065274;69;20500;-69
2022/04/19 05:06:52;;;;;;;;;;;;;;;5.71;49.78;92261.47;2065245;69;20481;-69
2022/04/19 05:09:21;;;;;;;;;;;;;;;5.72;49.55;92255.28;2064929;69;20046;-69
2022/04/19 05:11:46;;;;;;;;;;;;;;;5.83;49.12;92262.34;2065202;69;20072;-68
2022/04/19 05:14:13;;;;;;;;;;;;;;;5.58;50.18;92257.06;2065225;69;20058;-69
2022/04/19 05:16:39;;;;;;;;;;;;;;;5.43;50.96;92255.31;2065239;69;20478;-69
2022/04/19 05:19:04;;;;;;;;;;;;;;;5.30;50.95;92269.72;2065280;69;20106;-69
2022/04/19 05:21:33;;;;;;;;;;;;;;;5.57;50.49;92261.19;2065195;69;20499;-69
2022/04/19 05:23:58;;;;;;;;;;;;;;;5.42;51.36;92256.66;2065144;69;20138;-69
2022/04/19 05:26:28;;;;;;;;;;;;;;;5.49;51.26;92258.53;2065166;69;20154;-70
2022/04/19 05:28:54;;;;;;;;;;;;;;;5.71;49.60;92256.59;2052238;70;20569;-69
2022/04/19 05:31:20;;;;;;;;;;;;;;;5.77;50.68;92262.66;2062356;69;20065;-69
2022/04/19 05:33:46;;;;;;;;;;;;;;;5.70;50.92;92260.00;2065177;69;20054;-70
2022/04/19 05:36:12;;;;;;;;;;;;;;;5.53;51.38;92258.09;2065184;69;20094;-69
2022/04/19 05:38:38;;;;;;;;;;;;;;;5.36;51.87;92261.81;2052138;70;20544;-69
2022/04/19 05:41:05;;;;;;;;;;;;;;;5.71;48.44;92265.00;2065258;69;20070;-71
2022/04/19 05:43:31;;;;;;;;;;;;;;;5.70;49.37;92257.94;2064956;69;20574;-70
2022/04/19 05:45:59;;;;;;;;;;;;;;;5.76;49.97;92252.78;2064894;69;20082;-70
2022/04/19 05:48:25;;;;;;;;;;;;;;;5.99;46.36;92255.09;2065035;69;20209;-69
2022/04/19 05:50:51;;;;;;;;;;;;;;;5.73;49.99;92251.19;2065142;69;20565;-69
2022/04/19 05:53:16;;;;;;;;;;;;;;;5.79;50.42;92248.81;2064999;69;20513;-68
2022/04/19 05:55:42;;;;;;;;;;;;;;;5.86;50.62;92255.56;2065097;69;20051;-69
2022/04/19 05:58:07;;;;;;;;;;;;;;;5.91;49.74;92251.75;2065151;69;20114;-71
2022/04/19 06:00:33;;;;;;;;;;;;;;;5.48;51.77;92254.28;2065098;69;20046;-70
2022/04/19 06:05:44;;;;;;;;;;;;;;;5.68;51.98;92252.22;2052356;70;20054;-69
2022/04/19 06:08:10;;;;;;;;;;;;;;;5.66;51.60;92254.13;2062241;69;20150;-69
2022/04/19 06:10:36;;;;;;;;;;;;;;;6.03;49.45;92251.88;2065119;69;20145;-70
2022/04/19 06:13:03;;;;;;;;;;;;;;;5.93;50.42;92251.16;2065055;69;20067;-69
2022/04/19 06:15:31;;;;;;;;;;;;;;;5.77;50.94;92243.09;2065067;69;20563;-70
2022/04/19 06:17:57;;;;;;;;;;;;;;;5.91;50.72;92246.16;2065134;69;20051;-70
2022/04/19 06:20:43;;;;;;;;;;;;;;;5.82;49.22;92244.13;2065422;69;20120;-69
2022/04/19 06:23:10;;;;;;;;;;;;;;;5.96;47.71;92244.41;2065518;69;20062;-71
2022/04/19 06:25:36;;;;;;;;;;;;;;;5.84;50.64;92244.97;2065639;69;20051;-72
2022/04/19 06:28:01;;;;;;;;;;;;;;;5.78;51.09;92238.97;2065633;69;20496;-70
2022/04/19 06:30:35;;;;;;;;;;;;;;;5.75;51.77;92242.94;2065669;69;20081;-68
2022/04/19 06:33:00;;;;;;;;;;;;;;;5.79;50.89;92239.69;2065558;69;20429;-68
2022/04/19 06:35:26;;;;;;;;;;;;;;;5.76;51.59;92241.59;2065552;69;20051;-68
2022/04/19 06:37:51;;;;;;;;;;;;;;;5.66;52.17;92246.47;2065457;69;20055;-68
2022/04/19 06:40:17;;;;;;;;;;;;;;;6.07;50.64;92238.91;2052624;70;20499;-68
2022/04/19 06:42:43;;;;;;;;;;;;;;;6.62;49.90;92245.47;2065584;69;20059;-69
2022/04/19 06:45:14;;;;;;;;;;;;;;;7.14;48.04;92241.16;2052652;70;20136;-70
2022/04/19 06:47:44;;;;;;;;;;;;;;;7.53;47.99;92241.63;2065679;69;20047;-70
2022/04/19 06:50:10;;;;;;;;;;;;;;;8.00;46.87;92227.75;2052605;69;20266;-69
2022/04/19 06:52:40;;;;;;;;;;;;;;;8.35;45.27;92219.41;2062842;69;20057;-70
2022/04/19 06:55:25;;;;;;;;;;;;;;;8.58;44.70;92215.16;2065586;69;20082;-69
2022/04/19 06:57:51;;;;;;;;;;;;;;;8.94;44.00;92211.00;2065501;69;20424;-70
2022/04/19 07:00:17;;;;;;;;;;;;;;;9.31;42.50;92208.22;2065564;69;20149;-70
2022/04/19 07:02:44;;;;;;;;;;;;;;;9.50;45.33;92210.00;2065682;69;20221;-72
2022/04/19 07:05:42;;;;;;;;;;;;;;;9.64;44.29;92210.06;2056310;69;20085;-68
2022/04/19 07:08:07;;;;;;;;;;;;;;;10.02;43.04;92205.09;2065402;69;20058;-69
2022/04/19 07:10:36;;;;;;;;;;;;;;;10.37;42.93;92200.03;2065526;69;20480;-69
2022/04/19 07:13:27;;;;;;;;;;;;;;;9.99;42.55;92195.09;2063238;69;20090;-70
2022/04/19 07:15:53;;;;;;;;;;;;;;;10.13;42.28;92187.44;2065404;69;20065;-68
2022/04/19 07:18:23;;;;;;;;;;;;;;;11.07;41.04;92178.25;2065519;69;20050;-68
2022/04/19 07:29:02;;;;;;;;;;;;;;;11.91;39.79;92169.72;2065433;69;20086;-72
2022/04/19 07:31:28;;;;;;;;;;;;;;;11.79;39.02;92162.75;2065327;69;20094;-70
2022/04/19 07:33:57;;;;;;;;;;;;;;;13.03;38.42;92156.38;2062749;69;20051;-70
2022/04/19 07:36:23;;;;;;;;;;;;;;;11.70;39.42;92150.34;2065406;69;20053;-69
2022/04/19 07:38:49;;;;;;;;;;;;;;;13.34;37.32;92152.75;2065365;69;20053;-69
2022/04/19 07:41:22;;;;;;;;;;;;;;;13.00;36.98;92149.88;2052578;70;20051;-70
2022/04/19 07:43:48;;;;;;;;;;;;;;;13.42;37.02;92151.00;2052645;70;20577;-71
2022/04/19 07:46:17;;;;;;;;;;;;;;;13.69;35.73;92149.97;2065470;69;20120;-69
2022/04/19 07:48:44;;;;;;;;;;;;;;;13.63;36.38;92146.16;2065413;69;20086;-70
2022/04/19 07:51:09;;;;;;;;;;;;;;;13.85;34.47;92135.75;2065445;69;20039;-69
2022/04/19 07:53:35;;;;;;;;;;;;;;;13.52;35.38;92145.03;2062490;69;20071;-69
2022/04/19 07:56:00;;;;;;;;;;;;;;;14.30;34.90;92134.66;2065358;69;20475;-73
2022/04/19 07:58:25;;;;;;;;;;;;;;;13.94;34.88;92131.16;2065285;69;20121;-71
2022/04/19 08:00:51;;;;;;;;;;;;;;;14.47;34.37;92131.03;2065289;69;20463;-72
2022/04/19 08:03:17;;;;;;;;;;;;;;;14.93;34.73;92122.09;2065264;69;20482;-72
2022/04/19 08:05:43;;;;;;;;;;;;;;;15.46;33.71;92118.25;2062569;69;20120;-71
2022/04/19 08:08:08;;;;;;;;;;;;;;;15.73;32.27;92119.88;2065316;69;20047;-69
2022/04/19 08:10:34;;;;;;;;;;;;;;;15.86;32.62;92118.16;2065453;69;20057;-69
2022/04/19 08:13:01;;;;;;;;;;;;;;;15.62;32.54;92115.94;2068086;69;20045;-69
2022/04/19 08:15:27;;;;;;;;;;;;;;;16.25;32.43;92097.34;2068536;69;20143;-69
2022/04/19 08:17:53;;;;;;;;;;;;;;;15.65;31.99;92099.75;2068532;69;20522;-70
2022/04/19 08:20:18;;;;;;;;;;;;;;;16.37;32.99;92102.69;2068621;69;20544;-69
2022/04/19 08:22:44;;;;;;;;;;;;;;;16.47;32.18;92098.03;2067920;69;20114;-70
2022/04/19 08:25:16;;;;;;;;;;;;;;;17.74;31.57;92093.66;2068163;69;20056;-70
2022/04/19 08:27:45;;;;;;;;;;;;;;;18.50;29.24;92081.88;2068587;69;20045;-69
2022/04/19 08:30:16;;;;;;;;;;;;;;;17.46;31.00;92090.81;2068124;69;20077;-69
2022/04/19 08:32:42;;;;;;;;;;;;;;;17.89;31.58;92080.50;2068054;69;20135;-71
2022/04/19 08:35:09;;;;;;;;;;;;;;;18.14;31.43;92070.38;2067979;69;20080;-71
2022/04/19 08:37:34;;;;;;;;;;;;;;;18.66;28.88;92080.78;2068068;69;20140;-71
2022/04/19 08:40:02;;;;;;;;;;;;;;;18.76;30.33;92081.03;2067915;69;20552;-69
2022/04/19 08:42:29;;;;;;;;;;;;;;;18.92;30.31;92072.06;2067996;69;20140;-70
2022/04/19 08:45:03;;;;;;;;;;;;;;;19.60;27.75;92069.09;2068540;69;20339;-70
2022/04/19 08:47:32;;;;;;;;;;;;;;;18.16;28.13;92061.19;2068516;69;20140;-70
2022/04/19 08:50:00;;;;;;;;;;;;;;;19.07;29.28;92058.81;2068505;69;20053;-70
2022/04/19 08:52:26;;;;;;;;;;;;;;;19.16;28.38;92058.28;2068534;69;20532;-70
2022/04/19 08:57:36;;;;;;;;;;;;;;;21.13;24.55;92050.59;2068547;69;20081;-70
2022/04/19 09:00:05;;;;;;;;;;;;;;;19.91;27.86;92053.19;2068531;69;20096;-70
2022/04/19 09:02:32;;;;;;;;;;;;;;;20.58;27.02;92055.63;2068004;69;20484;-70
2022/04/19 09:05:13;;;;;;;;;;;;;;;21.26;26.17;92050.00;2068538;69;20088;-70
2022/04/19 09:07:40;;;;;;;;;;;;;;;20.78;26.52;92048.00;2067910;69;20053;-70
2022/04/19 09:10:06;;;;;;;;;;;;;;;21.38;25.41;92043.72;2068497;69;20077;-70
2022/04/19 09:12:32;;;;;;;;;;;;;;;21.55;26.45;92036.72;2063620;69;20511;-70
2022/04/19 09:14:58;;;;;;;;;;;;;;;21.36;24.86;92023.66;2052417;70;20050;-69
2022/04/19 09:17:31;;;;;;;;;;;;;;;20.46;25.62;92033.97;2052235;70;20043;-72
2022/04/19 09:20:18;;;;;;;;;;;;;;;22.27;25.12;92023.00;2052400;70;20138;-71
2022/04/19 09:22:44;;;;;;;;;;;;;;;22.49;22.05;92026.00;2052148;70;20043;-71
2022/04/19 09:25:14;;;;;;;;;;;;;;;22.25;23.99;92020.13;2052245;70;20054;-71
2022/04/19 09:27:39;;;;;;;;;;;;;;;22.23;23.75;92017.97;2052245;70;20076;-73
2022/04/19 09:30:23;;;;;;;;;;;;;;;21.73;23.01;92021.13;2052350;70;20420;-74
2022/04/19 09:33:04;;;;;;;;;;;;;;;20.73;23.58;92020.06;2052212;70;20529;-71
2022/04/19 09:35:31;;;;;;;;;;;;;;;21.67;23.42;92010.34;2065130;69;20058;-73
2022/04/19 09:37:56;;;;;;;;;;;;;;;23.21;22.87;92003.38;2052143;70;20420;-73
2022/04/19 09:40:48;;;;;;;;;;;;;;;23.68;22.51;92003.50;2052300;70;20474;-72
2022/04/19 09:43:15;;;;;;;;;;;;;;;22.90;22.39;92000.41;2063625;69;20043;-75
2022/04/19 09:45:44;;;;;;;;;;;;;;;23.41;20.03;91994.81;2065147;69;20497;-74
2022/04/19 09:48:15;;;;;;;;;;;;;;;21.76;20.98;91994.69;2052145;70;20498;-71
2022/04/19 09:50:47;;;;;;;;;;;;;;;21.70;20.83;91991.03;2052294;70;20051;-70
2022/04/19 09:53:16;;;;;;;;;;;;;;;22.98;19.39;91974.63;2052112;70;20135;-71
2022/04/19 09:55:45;;;;;;;;;;;;;;;22.28;19.87;91982.16;2065352;69;20564;-71
2022/04/19 09:58:11;;;;;;;;;;;;;;;21.96;20.86;91976.19;2052730;70;20062;-71
2022/04/19 10:00:37;;;;;;;;;;;;;;;20.44;20.17;91978.94;2052662;70;20502;-71
2022/04/19 10:08:30;;;;;;;;;;;;;;;21.27;21.13;91976.31;2052752;70;20482;-71
2022/04/19 10:10:56;;;;;;;;;;;;;;;22.38;19.78;91977.91;2052685;70;20054;-71
2022/04/19 10:13:25;;;;;;;;;;;;;;;23.06;18.39;91973.94;2052649;70;20226;-71
2022/04/19 10:15:51;;;;;;;;;;;;;;;23.82;18.41;91960.41;2052571;69;20046;-72
2022/04/19 10:18:16;;;;;;;;;;;;;;;24.87;17.60;91961.63;2052460;70;20055;-71
2022/04/19 10:20:46;;;;;;;;;;;;;;;24.89;18.22;91955.88;2052654;70;20047;-72
2022/04/19 10:23:12;;;;;;;;;;;;;;;22.77;18.89;91942.25;2052477;69;20058;-72
2022/04/19 10:25:43;;;;;;;;;;;;;;;23.21;20.12;91940.22;2052625;69;20073;-73
2022/04/19 10:28:09;;;;;;;;;;;;;;;25.21;18.86;91943.53;2052614;70;20050;-75
2022/04/19 10:30:39;;;;;;;;;;;;;;;25.28;18.75;91952.84;2065551;69;20513;-75
2022/04/19 10:33:23;;;;;;;;;;;;;;;24.91;18.25;91953.00;2052714;70;20133;-73
2022/04/19 10:36:07;;;;;;;;;;;;;;;26.88;16.42;91952.91;2052598;70;20196;-73
2022/04/19 10:38:33;;;;;;;;;;;;;;;27.28;16.27;91939.44;2052569;70;20062;-73
2022/04/19 10:40:58;;;;;;;;;;;;;;;26.75;16.54;91935.00;2052627;70;20482;-73
2022/04/19 10:43:23;;;;;;;;;;;;;;;27.60;16.18;91938.97;2052559;70;20055;-73
2022/04/19 10:45:51;;;;;;;;;;;;;;;27.59;15.32;91926.00;2052585;70;20053;-73
2022/04/19 10:48:16;;;;;;;;;;;;;;;28.02;15.48;91947.75;2052653;70;20406;-74
2022/04/19 10:50:45;;;;;;;;;;;;;;;29.49;15.25;91942.81;2052586;70;20047;-73
2022/04/19 10:53:11;;;;;;;;;;;;;;;30.73;13.65;91938.44;2052510;70;20078;-73
2022/04/19 10:55:38;;;;;;;;;;;;;;;30.09;15.38;91940.00;2065482;69;20129;-72
2022/04/19 10:58:12;;;;;;;;;;;;;;;28.18;14.05;91935.94;2052543;70;20421;-74
2022/04/19 11:00:40;;;;;;;;;;;;;;;27.46;14.30;91926.91;2065492;69;20061;-72
2022/04/19 11:03:29;;;;;;;;;;;;;;;32.81;12.59;91941.59;2055088;69;20134;-72
2022/04/19 11:05:55;;;;;;;;;;;;;;;27.58;14.59;91923.84;2053702;70;20054;-73
2022/04/19 11:08:26;;;;;;;;;;;;;;;32.62;12.85;91934.97;2055349;69;20081;-73
2022/04/19 11:10:52;;;;;;;;;;;;;;;32.78;12.56;91936.63;2055324;69;20145;-73
2022/04/19 11:13:19;;;;;;;;;;;;;;;32.79;11.55;91940.94;2055309;70;20061;-72
2022/04/19 11:15:59;;;;;;;;;;;;;;;34.49;10.58;91926.56;2055863;69;20069;-72
2022/04/19 11:18:26;;;;;;;;;;;;;;;33.00;10.63;91915.44;2055947;70;20414;-72
2022/04/19 11:20:54;;;;;;;;;;;;;;;35.10;10.68;91924.00;2055887;70;20054;-73
2022/04/19 11:23:22;;;;;;;;;;;;;;;33.03;10.67;91905.13;2055816;69;20058;-71
2022/04/19 11:25:49;;;;;;;;;;;;;;;35.84;10.20;91909.69;2055993;70;20054;-71
2022/04/19 11:28:16;;;;;;;;;;;;;;;37.46;9.45;91929.53;2069156;69;20144;-71
2022/04/19 11:30:43;;;;;;;;;;;;;;;38.34;9.70;91916.69;2055985;70;20386;-72
2022/04/19 11:33:11;;;;;;;;;;;;;;;31.08;11.94;91904.06;2055928;70;20624;-72
2022/04/19 11:35:37;;;;;;;;;;;;;;;28.28;13.63;91886.56;2066034;69;20051;-72
2022/04/19 11:38:10;;;;;;;;;;;;;;;28.42;14.43;91893.56;2055855;70;20088;-70
2022/04/19 11:49:02;;;;;;;;;;;;;;;23.74;16.53;91885.72;2055710;70;20090;-69
2022/04/19 11:51:27;;;;;;;;;;;;;;;30.88;14.13;91887.94;2055679;70;20493;-69
2022/04/19 11:53:52;;;;;;;;;;;;;;;31.27;13.54;91889.00;2068414;69;20063;-69
2022/04/19 11:56:18;;;;;;;;;;;;;;;25.95;16.55;91876.72;2068599;69;20058;-69
2022/04/19 11:58:49;;;;;;;;;;;;;;;26.46;15.69;91879.09;2053965;69;20484;-69
2022/04/19 12:01:15;;;;;;;;;;;;;;;27.02;16.39;91874.75;2053897;70;20599;-69
2022/04/19 12:03:40;;;;;;;;;;;;;;;25.74;16.41;91868.22;2054799;69;20169;-70
2022/04/19 12:06:08;;;;;;;;;;;;;;;24.91;17.10;91868.78;2054738;69;20074;-70
2022/04/19 12:08:33;;;;;;;;;;;;;;;27.62;14.87;91866.66;2055117;69;20096;-70
2022/04/19 12:11:06;;;;;;;;;;;;;;;24.38;17.74;91861.16;2055256;70;20104;-69
2022/04/19 12:13:32;;;;;;;;;;;;;;;25.68;16.82;91861.78;2055530;69;20149;-69
2022/04/19 12:16:00;;;;;;;;;;;;;;;24.94;16.30;91855.84;2055609;69;20146;-71
2022/04/19 12:18:36;;;;;;;;;;;;;;;23.26;17.36;91844.75;2055254;69;20143;-70
2022/04/19 12:21:03;;;;;;;;;;;;;;;27.95;14.04;91853.88;2055199;70;20058;-69
2022/04/19 12:23:28;;;;;;;;;;;;;;;26.66;15.37;91852.16;2054935;69;20058;-70
2022/04/19 12:26:00;;;;;;;;;;;;;;;24.35;17.05;91840.28;2055316;70;20048;-69
2022/04/19 12:28:41;;;;;;;;;;;;;;;23.78;17.49;91845.47;2055636;70;20124;-69
2022/04/19 12:31:07;;;;;;;;;;;;;;;21.63;19.28;91837.78;2055364;70;20069;-71
2022/04/19 12:33:34;;;;;;;;;;;;;;;24.78;17.58;91840.06;2055368;70;20142;-70
2022/04/19 12:36:00;;;;;;;;;;;;;;;23.62;17.23;91842.59;2068515;69;20062;-72
2022/04/19 12:38:31;;;;;;;;;;;;;;;23.61;17.90;91826.81;2068485;69;20086;-70
2022/04/19 12:40:58;;;;;;;;;;;;;;;23.09;18.54;91831.84;2055551;70;20141;-76
2022/04/19 12:43:43;;;;;;;;;;;;;;;25.65;16.20;91831.56;2055515;70;20082;-77
2022/04/19 12:46:09;;;;;;;;;;;;;;;30.08;14.94;91827.59;2055553;70;20130;-72
2022/04/19 12:48:34;;;;;;;;;;;;;;;27.41;13.91;91824.41;2055578;70;20050;-69
2022/04/19 12:51:01;;;;;;;;;;;;;;;24.94;15.96;91827.03;2068477;69;20135;-73
2022/04/19 12:53:26;;;;;;;;;;;;;;;28.30;14.49;91817.06;2055411;70;20042;-73
2022/04/19 12:55:52;;;;;;;;;;;;;;;31.02;13.18;91822.88;2055570;70;20050;-72
2022/04/19 12:58:17;;;;;;;;;;;;;;;32.72;11.69;91829.03;2055612;70;20094;-71
2022/04/19 13:00:43;;;;;;;;;;;;;;;32.49;11.80;91826.22;2055593;69;20050;-71
2022/04/19 13:03:08;;;;;;;;;;;;;;;33.58;11.07;91829.44;2055559;70;20403;-74
2022/04/19 13:13:45;;;;;;;;;;;;;;;35.74;9.58;91828.91;2055642;70;20193;-72
2022/04/19 13:16:11;;;;;;;;;;;;;;;34.00;10.76;91832.19;2055582;70;20078;-72
2022/04/19 13:18:36;;;;;;;;;;;;;;;30.97;12.02;91830.25;2055504;70;20115;-72
2022/04/19 13:21:02;;;;;;;;;;;;;;;33.28;10.96;91831.34;2055625;70;20407;-72
2022/04/19 13:23:27;;;;;;;;;;;;;;;32.45;10.76;91812.50;2068371;69;20149;-72
2022/04/19 13:25:53;;;;;;;;;;;;;;;31.91;11.74;91794.69;2055708;70;20480;-73
2022/04/19 13:28:19;;;;;;;;;;;;;;;32.33;11.94;91818.72;2055518;70;20073;-74
2022/04/19 13:30:44;;;;;;;;;;;;;;;30.17;12.86;91813.63;2055288;70;20050;-73
2022/04/19 13:33:09;;;;;;;;;;;;;;;35.73;11.00;91833.34;2068559;69;20120;-72
2022/04/19 13:35:35;;;;;;;;;;;;;;;33.83;10.61;91812.41;2055578;70;20469;-71
2022/04/19 13:40:44;;;;;;;;;;;;;;;38.17;9.16;91825.09;2055376;70;20117;-72
2022/04/19 13:43:10;;;;;;;;;;;;;;;35.59;9.67;91819.38;2055339;70;20502;-72
2022/04/19 13:45:36;;;;;;;;;;;;;;;35.14;9.90;91804.63;2055466;70;20062;-72